sensor_id;sensor_type;location;lat;lon;timestamp;temperature;humidity
7498;DHT22;3790;48.806;9.140;2023-07-16T00:01:23;19.00;99.90
7498;DHT22;3790;48.806;9.140;2023-07-16T00:06:24;18.90;99.90
7498;DHT22;3790;48.806;9.140;2023-07-16T00:11:24;18.80;99.90
7498;DHT22;3790;48.806;9.140;2023-07-16T00:16:24;18.70;99.90
7498;DHT22;3790;48.806;9.140;2023-07-16T00:21:25;18.60;99.90
7498;DHT22;3790;48.806;9.140;2023-07-16T00:26:25;18.60;99.90
7498;DHT22;3790;48.806;9.140;2023-07-16T00:31:26;18.60;99.90
7498;DHT22;3790;48.806;9.140;2023-07-16T00:36:26;18.60;99.90
7498;DHT22;3790;48.806;9.140;2023-07-16T00:41:27;18.60;99.90
7498;DHT22;3790;48.806;9.140;2023-07-16T00:46:28;18.70;99.90
7498;DHT22;3790;48.806;9.140;2023-07-16T00:51:29;18.70;99.90
7498;DHT22;3790;48.806;9.140;2023-07-16T00:56:30;18.70;99.90
7498;DHT22;3790;48.806;9.140;2023-07-16T01:01:31;18.80;99.90
7498;DHT22;3790;48.806;9.140;2023-07-16T01:06:48;18.80;99.90
7498;DHT22;3790;48.806;9.140;2023-07-16T01:11:50;18.90;99.90
7498;DHT22;3790;48.806;9.140;2023-07-16T01:16:51;18.90;99.90
7498;DHT22;3790;48.806;9.140;2023-07-16T01:22:23;18.90;99.90
7498;DHT22;3790;48.806;9.140;2023-07-16T01:27:36;18.90;99.90
7498;DHT22;3790;48.806;9.140;2023-07-16T01:32:44;18.40;99.90
7498;DHT22;3790;48.806;9.140;2023-07-16T01:37:45;17.60;99.90
7498;DHT22;3790;48.806;9.140;2023-07-16T01:42:46;17.30;99.90
7498;DHT22;3790;48.806;9.140;2023-07-16T01:53:15;17.40;99.90
7498;DHT22;3790;48.806;9.140;2023-07-16T01:58:15;17.30;99.90
7498;DHT22;3790;48.806;9.140;2023-07-16T02:03:16;17.10;99.90
7498;DHT22;3790;48.806;9.140;2023-07-16T02:08:17;17.10;99.90
7498;DHT22;3790;48.806;9.140;2023-07-16T02:13:18;17.10;99.90
7498;DHT22;3790;48.806;9.140;2023-07-16T02:18:19;17.20;99.90
7498;DHT22;3790;48.806;9.140;2023-07-16T02:23:19;17.20;99.90
7498;DHT22;3790;48.806;9.140;2023-07-16T02:28:19;17.20;99.90
7498;DHT22;3790;48.806;9.140;2023-07-16T02:33:20;17.40;99.90
7498;DHT22;3790;48.806;9.140;2023-07-16T02:38:20;17.50;99.90
7498;DHT22;3790;48.806;9.140;2023-07-16T02:43:21;17.70;99.90
7498;DHT22;3790;48.806;9.140;2023-07-16T02:48:21;17.80;99.90
7498;DHT22;3790;48.806;9.140;2023-07-16T02:53:22;17.80;99.90
7498;DHT22;3790;48.806;9.140;2023-07-16T02:58:22;17.70;99.90
7498;DHT22;3790;48.806;9.140;2023-07-16T03:03:23;17.70;99.90
7498;DHT22;3790;48.806;9.140;2023-07-16T03:08:23;17.70;99.90
7498;DHT22;3790;48.806;9.140;2023-07-16T03:13:26;17.60;99.90
7498;DHT22;3790;48.806;9.140;2023-07-16T03:18:30;17.50;99.90
7498;DHT22;3790;48.806;9.140;2023-07-16T03:23:31;17.30;99.90
7498;DHT22;3790;48.806;9.140;2023-07-16T03:28:31;17.20;99.90
7498;DHT22;3790;48.806;9.140;2023-07-16T03:33:32;17.10;99.90
7498;DHT22;3790;48.806;9.140;2023-07-16T03:38:32;17.20;99.90
7498;DHT22;3790;48.806;9.140;2023-07-16T03:43:33;17.10;99.90
7498;DHT22;3790;48.806;9.140;2023-07-16T03:48:35;17.00;99.90
7498;DHT22;3790;48.806;9.140;2023-07-16T03:53:35;17.10;99.90
7498;DHT22;3790;48.806;9.140;2023-07-16T03:58:36;17.10;99.90
7498;DHT22;3790;48.806;9.140;2023-07-16T04:03:36;17.10;99.90
7498;DHT22;3790;48.806;9.140;2023-07-16T04:08:37;17.10;99.90
7498;DHT22;3790;48.806;9.140;2023-07-16T04:13:38;17.20;99.90
7498;DHT22;3790;48.806;9.140;2023-07-16T04:18:38;17.20;99.90
7498;DHT22;3790;48.806;9.140;2023-07-16T04:23:39;17.30;99.90
7498;DHT22;3790;48.806;9.140;2023-07-16T04:28:39;17.30;99.90
7498;DHT22;3790;48.806;9.140;2023-07-16T04:33:40;17.40;99.90
7498;DHT22;3790;48.806;9.140;2023-07-16T04:38:40;17.40;99.90
7498;DHT22;3790;48.806;9.140;2023-07-16T04:43:41;17.50;99.90
7498;DHT22;3790;48.806;9.140;2023-07-16T04:48:41;17.50;99.90
7498;DHT22;3790;48.806;9.140;2023-07-16T04:53:42;17.30;99.90
7498;DHT22;3790;48.806;9.140;2023-07-16T04:58:42;17.20;99.90
7498;DHT22;3790;48.806;9.140;2023-07-16T05:03:43;17.20;99.90
7498;DHT22;3790;48.806;9.140;2023-07-16T05:08:43;17.10;99.90
7498;DHT22;3790;48.806;9.140;2023-07-16T05:13:44;17.00;99.90
7498;DHT22;3790;48.806;9.140;2023-07-16T05:18:44;17.00;99.90
7498;DHT22;3790;48.806;9.140;2023-07-16T05:23:45;17.10;99.90
7498;DHT22;3790;48.806;9.140;2023-07-16T05:28:45;17.30;99.90
7498;DHT22;3790;48.806;9.140;2023-07-16T05:33:46;17.50;99.90
7498;DHT22;3790;48.806;9.140;2023-07-16T05:38:46;17.80;99.90
7498;DHT22;3790;48.806;9.140;2023-07-16T05:43:47;18.00;99.90
7498;DHT22;3790;48.806;9.140;2023-07-16T05:48:47;18.20;99.90
7498;DHT22;3790;48.806;9.140;2023-07-16T05:53:48;19.00;99.90
7498;DHT22;3790;48.806;9.140;2023-07-16T05:58:48;19.40;99.90
7498;DHT22;3790;48.806;9.140;2023-07-16T06:03:49;19.80;99.90
7498;DHT22;3790;48.806;9.140;2023-07-16T06:08:49;20.00;99.90
7498;DHT22;3790;48.806;9.140;2023-07-16T06:13:52;20.60;99.90
7498;DHT22;3790;48.806;9.140;2023-07-16T06:18:55;20.60;99.90
7498;DHT22;3790;48.806;9.140;2023-07-16T06:23:56;20.30;99.90
7498;DHT22;3790;48.806;9.140;2023-07-16T06:28:56;20.10;99.90
7498;DHT22;3790;48.806;9.140;2023-07-16T06:33:57;19.90;99.90
7498;DHT22;3790;48.806;9.140;2023-07-16T06:38:57;20.00;99.90
7498;DHT22;3790;48.806;9.140;2023-07-16T06:43:58;20.40;99.90
7498;DHT22;3790;48.806;9.140;2023-07-16T06:48:58;21.00;99.90
7498;DHT22;3790;48.806;9.140;2023-07-16T06:53:59;21.30;99.90
7498;DHT22;3790;48.806;9.140;2023-07-16T06:59:00;21.80;99.90
7498;DHT22;3790;48.806;9.140;2023-07-16T07:04:00;22.50;99.90
7498;DHT22;3790;48.806;9.140;2023-07-16T07:09:01;23.20;99.90
7498;DHT22;3790;48.806;9.140;2023-07-16T07:14:01;22.80;99.90
7498;DHT22;3790;48.806;9.140;2023-07-16T07:19:02;22.20;99.90
7498;DHT22;3790;48.806;9.140;2023-07-16T07:24:03;21.40;99.90
7498;DHT22;3790;48.806;9.140;2023-07-16T07:29:03;21.10;99.90
7498;DHT22;3790;48.806;9.140;2023-07-16T07:34:04;21.30;99.90
7498;DHT22;3790;48.806;9.140;2023-07-16T07:39:04;21.60;99.90
7498;DHT22;3790;48.806;9.140;2023-07-16T07:44:06;22.20;99.90
7498;DHT22;3790;48.806;9.140;2023-07-16T07:49:06;21.90;99.90
7498;DHT22;3790;48.806;9.140;2023-07-16T07:54:07;21.40;99.90
7498;DHT22;3790;48.806;9.140;2023-07-16T07:59:07;21.50;99.90
7498;DHT22;3790;48.806;9.140;2023-07-16T08:04:08;21.70;99.90
7498;DHT22;3790;48.806;9.140;2023-07-16T08:09:09;21.30;99.90
7498;DHT22;3790;48.806;9.140;2023-07-16T08:14:09;21.00;99.90
7498;DHT22;3790;48.806;9.140;2023-07-16T08:19:10;20.80;99.90
7498;DHT22;3790;48.806;9.140;2023-07-16T08:24:10;21.20;99.90
7498;DHT22;3790;48.806;9.140;2023-07-16T08:29:11;21.70;99.90
7498;DHT22;3790;48.806;9.140;2023-07-16T08:34:11;21.30;99.90
7498;DHT22;3790;48.806;9.140;2023-07-16T08:39:11;22.10;99.90
7498;DHT22;3790;48.806;9.140;2023-07-16T08:44:12;23.10;99.90
7498;DHT22;3790;48.806;9.140;2023-07-16T08:49:13;23.90;99.90
7498;DHT22;3790;48.806;9.140;2023-07-16T08:54:14;24.30;99.90
7498;DHT22;3790;48.806;9.140;2023-07-16T08:59:19;23.80;99.90
7498;DHT22;3790;48.806;9.140;2023-07-16T09:04:20;24.10;99.90
7498;DHT22;3790;48.806;9.140;2023-07-16T09:09:22;23.90;99.90
7498;DHT22;3790;48.806;9.140;2023-07-16T09:14:23;23.70;99.90
7498;DHT22;3790;48.806;9.140;2023-07-16T09:19:25;23.90;99.90
7498;DHT22;3790;48.806;9.140;2023-07-16T09:24:25;23.40;99.90
7498;DHT22;3790;48.806;9.140;2023-07-16T09:29:26;23.40;99.90
7498;DHT22;3790;48.806;9.140;2023-07-16T09:34:28;23.30;99.90
7498;DHT22;3790;48.806;9.140;2023-07-16T09:39:31;23.50;99.90
7498;DHT22;3790;48.806;9.140;2023-07-16T09:44:32;23.40;99.90
7498;DHT22;3790;48.806;9.140;2023-07-16T09:49:33;23.60;99.90
7498;DHT22;3790;48.806;9.140;2023-07-16T09:54:34;23.70;99.90
7498;DHT22;3790;48.806;9.140;2023-07-16T09:59:36;23.40;99.90
7498;DHT22;3790;48.806;9.140;2023-07-16T10:04:38;23.50;99.90
7498;DHT22;3790;48.806;9.140;2023-07-16T10:09:50;24.20;99.90
7498;DHT22;3790;48.806;9.140;2023-07-16T10:14:53;24.80;99.90
7498;DHT22;3790;48.806;9.140;2023-07-16T10:24:58;24.70;99.90
7498;DHT22;3790;48.806;9.140;2023-07-16T10:30:00;24.10;99.90
7498;DHT22;3790;48.806;9.140;2023-07-16T10:35:04;24.30;99.90
7498;DHT22;3790;48.806;9.140;2023-07-16T10:40:06;24.90;99.90
7498;DHT22;3790;48.806;9.140;2023-07-16T10:45:10;25.10;99.90
7498;DHT22;3790;48.806;9.140;2023-07-16T10:50:10;23.90;99.90
7498;DHT22;3790;48.806;9.140;2023-07-16T10:55:11;24.00;99.90
7498;DHT22;3790;48.806;9.140;2023-07-16T11:00:12;24.20;99.90
7498;DHT22;3790;48.806;9.140;2023-07-16T11:05:16;24.30;99.90
7498;DHT22;3790;48.806;9.140;2023-07-16T11:10:17;24.70;99.90
7498;DHT22;3790;48.806;9.140;2023-07-16T11:15:18;24.70;99.90
7498;DHT22;3790;48.806;9.140;2023-07-16T11:20:19;24.70;99.90
7498;DHT22;3790;48.806;9.140;2023-07-16T11:25:23;25.30;99.90
7498;DHT22;3790;48.806;9.140;2023-07-16T11:30:25;25.10;99.90
7498;DHT22;3790;48.806;9.140;2023-07-16T11:35:25;24.50;99.90
7498;DHT22;3790;48.806;9.140;2023-07-16T11:40:26;24.50;99.90
7498;DHT22;3790;48.806;9.140;2023-07-16T11:45:27;25.50;99.90
7498;DHT22;3790;48.806;9.140;2023-07-16T11:50:30;26.80;99.90
7498;DHT22;3790;48.806;9.140;2023-07-16T11:55:30;28.60;99.90
7498;DHT22;3790;48.806;9.140;2023-07-16T12:00:31;29.30;99.90
7498;DHT22;3790;48.806;9.140;2023-07-16T12:05:32;30.10;99.90
7498;DHT22;3790;48.806;9.140;2023-07-16T12:10:32;31.00;96.40
7498;DHT22;3790;48.806;9.140;2023-07-16T12:15:33;30.30;98.10
7498;DHT22;3790;48.806;9.140;2023-07-16T12:20:35;30.10;96.10
7498;DHT22;3790;48.806;9.140;2023-07-16T12:25:36;30.30;95.80
7498;DHT22;3790;48.806;9.140;2023-07-16T12:30:37;31.10;95.30
7498;DHT22;3790;48.806;9.140;2023-07-16T12:35:37;30.60;94.20
7498;DHT22;3790;48.806;9.140;2023-07-16T12:40:38;29.60;96.10
7498;DHT22;3790;48.806;9.140;2023-07-16T12:45:41;30.10;94.30
7498;DHT22;3790;48.806;9.140;2023-07-16T12:50:41;30.30;93.80
7498;DHT22;3790;48.806;9.140;2023-07-16T12:55:41;29.70;94.70
7498;DHT22;3790;48.806;9.140;2023-07-16T13:00:42;29.00;95.90
7498;DHT22;3790;48.806;9.140;2023-07-16T13:05:43;27.10;97.80
7498;DHT22;3790;48.806;9.140;2023-07-16T13:10:45;26.40;99.20
7498;DHT22;3790;48.806;9.140;2023-07-16T13:15:46;27.40;98.80
7498;DHT22;3790;48.806;9.140;2023-07-16T13:20:49;27.30;98.70
7498;DHT22;3790;48.806;9.140;2023-07-16T13:25:49;28.00;99.90
7498;DHT22;3790;48.806;9.140;2023-07-16T13:30:53;28.00;99.30
7498;DHT22;3790;48.806;9.140;2023-07-16T13:35:53;27.90;99.10
7498;DHT22;3790;48.806;9.140;2023-07-16T13:40:54;27.40;99.70
7498;DHT22;3790;48.806;9.140;2023-07-16T13:45:55;26.80;99.90
7498;DHT22;3790;48.806;9.140;2023-07-16T13:50:55;26.50;99.90
7498;DHT22;3790;48.806;9.140;2023-07-16T13:55:56;26.90;99.90
7498;DHT22;3790;48.806;9.140;2023-07-16T14:00:56;26.80;99.90
7498;DHT22;3790;48.806;9.140;2023-07-16T14:05:57;26.60;99.90
7498;DHT22;3790;48.806;9.140;2023-07-16T14:10:57;26.50;99.90
7498;DHT22;3790;48.806;9.140;2023-07-16T14:15:58;26.70;99.90
7498;DHT22;3790;48.806;9.140;2023-07-16T14:20:59;26.30;99.90
7498;DHT22;3790;48.806;9.140;2023-07-16T14:26:00;25.90;99.90
7498;DHT22;3790;48.806;9.140;2023-07-16T14:31:00;25.60;99.90
7498;DHT22;3790;48.806;9.140;2023-07-16T14:36:01;25.90;99.90
7498;DHT22;3790;48.806;9.140;2023-07-16T14:41:03;26.20;99.90
7498;DHT22;3790;48.806;9.140;2023-07-16T14:46:04;26.70;99.90
7498;DHT22;3790;48.806;9.140;2023-07-16T14:51:05;26.90;99.90
7498;DHT22;3790;48.806;9.140;2023-07-16T14:56:06;26.80;99.90
7498;DHT22;3790;48.806;9.140;2023-07-16T15:01:06;26.50;99.90
7498;DHT22;3790;48.806;9.140;2023-07-16T15:06:08;26.00;99.90
7498;DHT22;3790;48.806;9.140;2023-07-16T15:11:08;26.30;99.90
7498;DHT22;3790;48.806;9.140;2023-07-16T15:16:09;26.50;99.90
7498;DHT22;3790;48.806;9.140;2023-07-16T15:21:11;26.60;99.90
7498;DHT22;3790;48.806;9.140;2023-07-16T15:26:12;27.20;99.90
7498;DHT22;3790;48.806;9.140;2023-07-16T15:31:13;27.50;99.90
7498;DHT22;3790;48.806;9.140;2023-07-16T15:36:13;27.30;99.90
7498;DHT22;3790;48.806;9.140;2023-07-16T15:41:18;26.90;99.90
7498;DHT22;3790;48.806;9.140;2023-07-16T15:46:27;26.30;99.90
7498;DHT22;3790;48.806;9.140;2023-07-16T15:51:28;26.70;99.90
7498;DHT22;3790;48.806;9.140;2023-07-16T15:56:28;26.60;99.90
7498;DHT22;3790;48.806;9.140;2023-07-16T16:01:29;26.40;99.90
7498;DHT22;3790;48.806;9.140;2023-07-16T16:06:31;26.50;99.90
7498;DHT22;3790;48.806;9.140;2023-07-16T16:11:34;26.50;99.90
7498;DHT22;3790;48.806;9.140;2023-07-16T16:16:35;26.40;99.90
7498;DHT22;3790;48.806;9.140;2023-07-16T16:21:38;26.60;99.90
7498;DHT22;3790;48.806;9.140;2023-07-16T16:26:41;26.50;99.90
7498;DHT22;3790;48.806;9.140;2023-07-16T16:31:42;26.40;99.90
7498;DHT22;3790;48.806;9.140;2023-07-16T16:36:42;26.00;99.90
7498;DHT22;3790;48.806;9.140;2023-07-16T16:41:43;25.80;99.90
7498;DHT22;3790;48.806;9.140;2023-07-16T16:46:43;26.00;99.60
7498;DHT22;3790;48.806;9.140;2023-07-16T16:51:44;25.80;99.90
7498;DHT22;3790;48.806;9.140;2023-07-16T16:56:44;25.80;99.90
7498;DHT22;3790;48.806;9.140;2023-07-16T17:01:45;25.90;99.90
7498;DHT22;3790;48.806;9.140;2023-07-16T17:06:45;26.10;99.90
7498;DHT22;3790;48.806;9.140;2023-07-16T17:11:46;26.00;99.90
7498;DHT22;3790;48.806;9.140;2023-07-16T17:16:47;25.90;99.90
7498;DHT22;3790;48.806;9.140;2023-07-16T17:21:47;25.70;99.10
7498;DHT22;3790;48.806;9.140;2023-07-16T17:26:48;25.40;99.90
7498;DHT22;3790;48.806;9.140;2023-07-16T17:31:48;25.30;99.80
7498;DHT22;3790;48.806;9.140;2023-07-16T17:36:49;25.00;99.60
7498;DHT22;3790;48.806;9.140;2023-07-16T17:41:49;24.80;99.50
7498;DHT22;3790;48.806;9.140;2023-07-16T17:46:50;24.50;99.90
7498;DHT22;3790;48.806;9.140;2023-07-16T17:51:51;24.50;99.70
7498;DHT22;3790;48.806;9.140;2023-07-16T17:56:53;24.20;99.70
7498;DHT22;3790;48.806;9.140;2023-07-16T18:01:53;23.80;99.90
7498;DHT22;3790;48.806;9.140;2023-07-16T18:06:55;23.70;99.90
7498;DHT22;3790;48.806;9.140;2023-07-16T18:11:56;23.70;99.90
7498;DHT22;3790;48.806;9.140;2023-07-16T18:16:57;23.70;99.90
7498;DHT22;3790;48.806;9.140;2023-07-16T18:21:57;23.70;99.90
7498;DHT22;3790;48.806;9.140;2023-07-16T18:26:58;23.80;99.90
7498;DHT22;3790;48.806;9.140;2023-07-16T18:31:59;23.70;99.90
7498;DHT22;3790;48.806;9.140;2023-07-16T18:36:59;23.70;99.90
7498;DHT22;3790;48.806;9.140;2023-07-16T18:42:01;23.60;99.90
7498;DHT22;3790;48.806;9.140;2023-07-16T18:47:03;23.50;99.90
7498;DHT22;3790;48.806;9.140;2023-07-16T18:52:04;23.40;99.90
7498;DHT22;3790;48.806;9.140;2023-07-16T18:57:05;23.10;99.90
7498;DHT22;3790;48.806;9.140;2023-07-16T19:02:06;22.80;99.90
7498;DHT22;3790;48.806;9.140;2023-07-16T19:07:07;22.90;99.90
7498;DHT22;3790;48.806;9.140;2023-07-16T19:12:08;22.80;99.90
7498;DHT22;3790;48.806;9.140;2023-07-16T19:17:15;22.80;99.90
7498;DHT22;3790;48.806;9.140;2023-07-16T19:22:16;22.70;99.90
7498;DHT22;3790;48.806;9.140;2023-07-16T19:27:16;22.60;99.90
7498;DHT22;3790;48.806;9.140;2023-07-16T19:32:17;22.40;99.90
7498;DHT22;3790;48.806;9.140;2023-07-16T19:37:17;22.30;99.90
7498;DHT22;3790;48.806;9.140;2023-07-16T19:42:18;22.20;99.90
7498;DHT22;3790;48.806;9.140;2023-07-16T19:47:19;22.20;99.90
7498;DHT22;3790;48.806;9.140;2023-07-16T19:52:20;22.30;99.90
7498;DHT22;3790;48.806;9.140;2023-07-16T19:57:20;22.30;99.90
7498;DHT22;3790;48.806;9.140;2023-07-16T20:02:21;22.30;99.90
7498;DHT22;3790;48.806;9.140;2023-07-16T20:07:22;22.40;99.90
7498;DHT22;3790;48.806;9.140;2023-07-16T20:12:22;22.40;99.90
7498;DHT22;3790;48.806;9.140;2023-07-16T20:17:23;22.50;99.90
7498;DHT22;3790;48.806;9.140;2023-07-16T20:22:23;22.30;99.90
7498;DHT22;3790;48.806;9.140;2023-07-16T20:27:24;22.20;99.90
7498;DHT22;3790;48.806;9.140;2023-07-16T20:32:24;22.10;99.90
7498;DHT22;3790;48.806;9.140;2023-07-16T20:37:25;22.10;99.90
7498;DHT22;3790;48.806;9.140;2023-07-16T20:42:25;22.00;99.90
7498;DHT22;3790;48.806;9.140;2023-07-16T20:47:26;22.00;99.90
7498;DHT22;3790;48.806;9.140;2023-07-16T20:52:26;22.00;99.90
7498;DHT22;3790;48.806;9.140;2023-07-16T20:57:27;22.10;99.90
7498;DHT22;3790;48.806;9.140;2023-07-16T21:02:27;22.00;99.90
7498;DHT22;3790;48.806;9.140;2023-07-16T21:07:28;22.00;99.90
7498;DHT22;3790;48.806;9.140;2023-07-16T21:12:29;22.00;99.90
7498;DHT22;3790;48.806;9.140;2023-07-16T21:17:29;21.90;99.90
7498;DHT22;3790;48.806;9.140;2023-07-16T21:22:30;21.90;99.90
7498;DHT22;3790;48.806;9.140;2023-07-16T21:27:34;21.80;99.90
7498;DHT22;3790;48.806;9.140;2023-07-16T21:32:39;21.70;99.90
7498;DHT22;3790;48.806;9.140;2023-07-16T21:37:39;21.70;99.90
7498;DHT22;3790;48.806;9.140;2023-07-16T21:42:40;21.60;99.90
7498;DHT22;3790;48.806;9.140;2023-07-16T21:47:40;21.60;99.90
7498;DHT22;3790;48.806;9.140;2023-07-16T21:52:41;21.40;99.90
7498;DHT22;3790;48.806;9.140;2023-07-16T21:57:42;21.30;99.90
7498;DHT22;3790;48.806;9.140;2023-07-16T22:02:42;21.10;99.90
7498;DHT22;3790;48.806;9.140;2023-07-16T22:07:43;20.80;99.90
7498;DHT22;3790;48.806;9.140;2023-07-16T22:12:44;20.70;99.90
7498;DHT22;3790;48.806;9.140;2023-07-16T22:17:45;20.60;99.90
7498;DHT22;3790;48.806;9.140;2023-07-16T22:22:45;20.50;99.90
7498;DHT22;3790;48.806;9.140;2023-07-16T22:27:46;20.40;99.90
7498;DHT22;3790;48.806;9.140;2023-07-16T22:32:46;20.30;99.90
7498;DHT22;3790;48.806;9.140;2023-07-16T22:37:47;20.10;99.90
7498;DHT22;3790;48.806;9.140;2023-07-16T22:42:47;20.00;99.90
7498;DHT22;3790;48.806;9.140;2023-07-16T22:47:48;20.00;99.90
7498;DHT22;3790;48.806;9.140;2023-07-16T22:52:48;20.10;99.90
7498;DHT22;3790;48.806;9.140;2023-07-16T22:57:49;20.00;99.90
7498;DHT22;3790;48.806;9.140;2023-07-16T23:02:49;20.10;99.90
7498;DHT22;3790;48.806;9.140;2023-07-16T23:07:52;20.00;99.90
7498;DHT22;3790;48.806;9.140;2023-07-16T23:12:53;19.80;99.90
7498;DHT22;3790;48.806;9.140;2023-07-16T23:17:53;19.60;99.90
7498;DHT22;3790;48.806;9.140;2023-07-16T23:22:54;19.40;99.90
7498;DHT22;3790;48.806;9.140;2023-07-16T23:27:54;19.50;99.90
7498;DHT22;3790;48.806;9.140;2023-07-16T23:32:55;19.90;99.90
7498;DHT22;3790;48.806;9.140;2023-07-16T23:37:56;20.00;99.90
7498;DHT22;3790;48.806;9.140;2023-07-16T23:42:56;20.00;99.90
7498;DHT22;3790;48.806;9.140;2023-07-16T23:47:57;19.80;99.90
7498;DHT22;3790;48.806;9.140;2023-07-16T23:52:57;19.70;99.90
7498;DHT22;3790;48.806;9.140;2023-07-16T23:57:58;19.70;99.90
